sensor_id;sensor_type;location;lat;lon;timestamp;P1;durP1;ratioP1;P2;durP2;ratioP2
49460;SDS011;35355;49.198;-0.368;2023-04-15T00:01:49;5.25;;;0.43;;
49460;SDS011;35355;49.198;-0.368;2023-04-15T00:04:14;9.43;;;0.52;;
49460;SDS011;35355;49.198;-0.368;2023-04-15T00:06:39;2.38;;;0.50;;
49460;SDS011;35355;49.198;-0.368;2023-04-15T00:09:05;6.20;;;1.40;;
49460;SDS011;35355;49.198;-0.368;2023-04-15T00:11:31;7.40;;;0.70;;
49460;SDS011;35355;49.198;-0.368;2023-04-15T00:13:56;2.55;;;0.30;;
49460;SDS011;35355;49.198;-0.368;2023-04-15T00:16:22;5.35;;;1.15;;
49460;SDS011;35355;49.198;-0.368;2023-04-15T00:18:47;5.55;;;0.60;;
49460;SDS011;35355;49.198;-0.368;2023-04-15T00:21:13;7.53;;;0.50;;
49460;SDS011;35355;49.198;-0.368;2023-04-15T00:23:38;3.60;;;0.88;;
49460;SDS011;35355;49.198;-0.368;2023-04-15T00:26:04;11.95;;;1.38;;
49460;SDS011;35355;49.198;-0.368;2023-04-15T00:28:29;5.53;;;0.90;;
49460;SDS011;35355;49.198;-0.368;2023-04-15T00:30:55;3.50;;;0.47;;
49460;SDS011;35355;49.198;-0.368;2023-04-15T00:33:20;6.38;;;0.63;;
49460;SDS011;35355;49.198;-0.368;2023-04-15T00:35:45;5.78;;;0.57;;
49460;SDS011;35355;49.198;-0.368;2023-04-15T00:38:11;2.65;;;0.38;;
49460;SDS011;35355;49.198;-0.368;2023-04-15T00:40:37;4.50;;;0.50;;
49460;SDS011;35355;49.198;-0.368;2023-04-15T00:43:02;6.45;;;0.70;;
49460;SDS011;35355;49.198;-0.368;2023-04-15T00:45:28;5.60;;;0.40;;
49460;SDS011;35355;49.198;-0.368;2023-04-15T00:47:54;4.10;;;0.50;;
49460;SDS011;35355;49.198;-0.368;2023-04-15T00:50:20;3.53;;;0.40;;
49460;SDS011;35355;49.198;-0.368;2023-04-15T00:52:45;6.05;;;0.65;;
49460;SDS011;35355;49.198;-0.368;2023-04-15T00:55:11;8.95;;;0.77;;
49460;SDS011;35355;49.198;-0.368;2023-04-15T00:57:36;6.28;;;0.65;;
49460;SDS011;35355;49.198;-0.368;2023-04-15T01:00:04;3.55;;;0.88;;
49460;SDS011;35355;49.198;-0.368;2023-04-15T01:02:32;7.05;;;0.50;;
49460;SDS011;35355;49.198;-0.368;2023-04-15T01:04:58;5.10;;;0.45;;
49460;SDS011;35355;49.198;-0.368;2023-04-15T01:07:23;6.45;;;0.50;;
49460;SDS011;35355;49.198;-0.368;2023-04-15T01:09:49;4.40;;;0.40;;
49460;SDS011;35355;49.198;-0.368;2023-04-15T01:12:14;6.95;;;0.60;;
49460;SDS011;35355;49.198;-0.368;2023-04-15T01:14:41;4.35;;;0.52;;
49460;SDS011;35355;49.198;-0.368;2023-04-15T01:17:06;4.88;;;0.38;;
49460;SDS011;35355;49.198;-0.368;2023-04-15T01:19:32;4.25;;;0.47;;
49460;SDS011;35355;49.198;-0.368;2023-04-15T01:21:58;4.75;;;0.40;;
49460;SDS011;35355;49.198;-0.368;2023-04-15T01:24:23;5.65;;;0.57;;
49460;SDS011;35355;49.198;-0.368;2023-04-15T01:26:51;8.38;;;1.15;;
49460;SDS011;35355;49.198;-0.368;2023-04-15T01:29:17;5.45;;;0.68;;
49460;SDS011;35355;49.198;-0.368;2023-04-15T01:31:52;1.33;;;0.55;;
49460;SDS011;35355;49.198;-0.368;2023-04-15T01:34:19;3.70;;;0.63;;
49460;SDS011;35355;49.198;-0.368;2023-04-15T01:36:44;4.13;;;0.65;;
49460;SDS011;35355;49.198;-0.368;2023-04-15T01:39:10;9.32;;;0.77;;
49460;SDS011;35355;49.198;-0.368;2023-04-15T01:41:35;7.35;;;1.17;;
49460;SDS011;35355;49.198;-0.368;2023-04-15T01:44:01;2.83;;;0.38;;
49460;SDS011;35355;49.198;-0.368;2023-04-15T01:46:26;6.85;;;0.50;;
49460;SDS011;35355;49.198;-0.368;2023-04-15T01:48:51;1.98;;;0.22;;
49460;SDS011;35355;49.198;-0.368;2023-04-15T01:51:17;6.20;;;0.50;;
49460;SDS011;35355;49.198;-0.368;2023-04-15T01:53:42;14.68;;;0.90;;
49460;SDS011;35355;49.198;-0.368;2023-04-15T01:56:08;7.28;;;0.57;;
49460;SDS011;35355;49.198;-0.368;2023-04-15T01:58:33;3.80;;;0.70;;
49460;SDS011;35355;49.198;-0.368;2023-04-15T02:00:58;4.40;;;0.20;;
49460;SDS011;35355;49.198;-0.368;2023-04-15T02:03:24;5.43;;;1.00;;
49460;SDS011;35355;49.198;-0.368;2023-04-15T02:05:49;4.05;;;0.35;;
49460;SDS011;35355;49.198;-0.368;2023-04-15T02:08:15;2.15;;;0.40;;
49460;SDS011;35355;49.198;-0.368;2023-04-15T02:10:41;5.18;;;0.22;;
49460;SDS011;35355;49.198;-0.368;2023-04-15T02:13:06;4.03;;;0.60;;
49460;SDS011;35355;49.198;-0.368;2023-04-15T02:15:31;2.63;;;0.40;;
49460;SDS011;35355;49.198;-0.368;2023-04-15T02:17:57;6.22;;;0.43;;
49460;SDS011;35355;49.198;-0.368;2023-04-15T02:20:24;5.18;;;1.30;;
49460;SDS011;35355;49.198;-0.368;2023-04-15T02:22:50;4.53;;;0.35;;
49460;SDS011;35355;49.198;-0.368;2023-04-15T02:25:16;3.67;;;0.60;;
49460;SDS011;35355;49.198;-0.368;2023-04-15T02:27:41;6.40;;;0.40;;
49460;SDS011;35355;49.198;-0.368;2023-04-15T02:30:08;7.80;;;0.50;;
49460;SDS011;35355;49.198;-0.368;2023-04-15T02:32:34;4.00;;;0.22;;
49460;SDS011;35355;49.198;-0.368;2023-04-15T02:35:04;4.72;;;0.30;;
49460;SDS011;35355;49.198;-0.368;2023-04-15T02:37:31;3.83;;;0.40;;
49460;SDS011;35355;49.198;-0.368;2023-04-15T02:40:00;4.38;;;0.70;;
49460;SDS011;35355;49.198;-0.368;2023-04-15T02:42:26;4.95;;;0.30;;
49460;SDS011;35355;49.198;-0.368;2023-04-15T02:44:52;5.75;;;0.70;;
49460;SDS011;35355;49.198;-0.368;2023-04-15T02:47:19;1.60;;;0.30;;
49460;SDS011;35355;49.198;-0.368;2023-04-15T02:49:44;5.80;;;0.60;;
49460;SDS011;35355;49.198;-0.368;2023-04-15T02:52:10;5.10;;;0.50;;
49460;SDS011;35355;49.198;-0.368;2023-04-15T02:54:35;6.10;;;0.50;;
49460;SDS011;35355;49.198;-0.368;2023-04-15T02:57:00;6.30;;;0.40;;
49460;SDS011;35355;49.198;-0.368;2023-04-15T02:59:26;3.47;;;1.13;;
49460;SDS011;35355;49.198;-0.368;2023-04-15T03:01:51;4.18;;;0.30;;
49460;SDS011;35355;49.198;-0.368;2023-04-15T03:04:16;4.40;;;0.60;;
49460;SDS011;35355;49.198;-0.368;2023-04-15T03:06:42;2.80;;;0.28;;
49460;SDS011;35355;49.198;-0.368;2023-04-15T03:09:07;6.22;;;0.43;;
49460;SDS011;35355;49.198;-0.368;2023-04-15T03:11:32;3.85;;;0.25;;
49460;SDS011;35355;49.198;-0.368;2023-04-15T03:14:04;2.65;;;0.30;;
49460;SDS011;35355;49.198;-0.368;2023-04-15T03:16:29;2.55;;;0.43;;
49460;SDS011;35355;49.198;-0.368;2023-04-15T03:18:55;2.63;;;0.57;;
49460;SDS011;35355;49.198;-0.368;2023-04-15T03:21:20;5.20;;;1.45;;
49460;SDS011;35355;49.198;-0.368;2023-04-15T03:23:47;2.92;;;0.50;;
49460;SDS011;35355;49.198;-0.368;2023-04-15T03:26:22;8.38;;;0.50;;
49460;SDS011;35355;49.198;-0.368;2023-04-15T03:28:55;2.67;;;0.50;;
49460;SDS011;35355;49.198;-0.368;2023-04-15T03:31:20;6.45;;;0.80;;
49460;SDS011;35355;49.198;-0.368;2023-04-15T03:33:46;5.03;;;0.40;;
49460;SDS011;35355;49.198;-0.368;2023-04-15T03:36:11;4.55;;;0.80;;
49460;SDS011;35355;49.198;-0.368;2023-04-15T03:38:37;14.40;;;1.52;;
49460;SDS011;35355;49.198;-0.368;2023-04-15T03:41:02;9.88;;;0.60;;
49460;SDS011;35355;49.198;-0.368;2023-04-15T03:43:27;6.55;;;1.13;;
49460;SDS011;35355;49.198;-0.368;2023-04-15T03:45:53;8.30;;;0.98;;
49460;SDS011;35355;49.198;-0.368;2023-04-15T03:48:18;5.53;;;0.68;;
49460;SDS011;35355;49.198;-0.368;2023-04-15T03:50:44;6.97;;;1.08;;
49460;SDS011;35355;49.198;-0.368;2023-04-15T03:53:10;5.28;;;0.85;;
49460;SDS011;35355;49.198;-0.368;2023-04-15T03:55:36;5.63;;;0.98;;
49460;SDS011;35355;49.198;-0.368;2023-04-15T03:58:01;8.23;;;1.25;;
49460;SDS011;35355;49.198;-0.368;2023-04-15T04:00:27;8.60;;;0.80;;
49460;SDS011;35355;49.198;-0.368;2023-04-15T04:02:52;5.78;;;1.17;;
49460;SDS011;35355;49.198;-0.368;2023-04-15T04:05:17;4.13;;;0.95;;
49460;SDS011;35355;49.198;-0.368;2023-04-15T04:07:43;10.57;;;1.60;;
49460;SDS011;35355;49.198;-0.368;2023-04-15T04:10:08;7.28;;;1.25;;
49460;SDS011;35355;49.198;-0.368;2023-04-15T04:12:34;9.38;;;1.52;;
49460;SDS011;35355;49.198;-0.368;2023-04-15T04:14:59;6.22;;;1.48;;
49460;SDS011;35355;49.198;-0.368;2023-04-15T04:17:24;4.72;;;0.85;;
49460;SDS011;35355;49.198;-0.368;2023-04-15T04:19:50;9.02;;;1.38;;
49460;SDS011;35355;49.198;-0.368;2023-04-15T04:22:15;4.57;;;1.05;;
49460;SDS011;35355;49.198;-0.368;2023-04-15T04:24:41;3.53;;;0.77;;
49460;SDS011;35355;49.198;-0.368;2023-04-15T04:27:06;3.35;;;0.60;;
49460;SDS011;35355;49.198;-0.368;2023-04-15T04:29:31;7.13;;;0.75;;
49460;SDS011;35355;49.198;-0.368;2023-04-15T04:31:57;8.85;;;1.10;;
49460;SDS011;35355;49.198;-0.368;2023-04-15T04:34:22;2.35;;;0.70;;
49460;SDS011;35355;49.198;-0.368;2023-04-15T04:36:47;4.35;;;1.00;;
49460;SDS011;35355;49.198;-0.368;2023-04-15T04:39:13;2.70;;;0.70;;
49460;SDS011;35355;49.198;-0.368;2023-04-15T04:41:38;7.53;;;1.08;;
49460;SDS011;35355;49.198;-0.368;2023-04-15T04:44:03;8.68;;;1.20;;
49460;SDS011;35355;49.198;-0.368;2023-04-15T04:46:29;8.23;;;1.27;;
49460;SDS011;35355;49.198;-0.368;2023-04-15T04:48:54;4.97;;;1.23;;
49460;SDS011;35355;49.198;-0.368;2023-04-15T04:51:20;7.30;;;0.75;;
49460;SDS011;35355;49.198;-0.368;2023-04-15T04:53:45;8.90;;;2.15;;
49460;SDS011;35355;49.198;-0.368;2023-04-15T04:56:10;3.63;;;1.55;;
49460;SDS011;35355;49.198;-0.368;2023-04-15T04:58:36;6.53;;;0.90;;
49460;SDS011;35355;49.198;-0.368;2023-04-15T05:01:02;8.73;;;1.00;;
49460;SDS011;35355;49.198;-0.368;2023-04-15T05:03:27;6.93;;;1.02;;
49460;SDS011;35355;49.198;-0.368;2023-04-15T05:05:53;3.83;;;1.15;;
49460;SDS011;35355;49.198;-0.368;2023-04-15T05:08:18;6.82;;;0.98;;
49460;SDS011;35355;49.198;-0.368;2023-04-15T05:10:44;2.15;;;0.80;;
49460;SDS011;35355;49.198;-0.368;2023-04-15T05:13:09;4.63;;;0.85;;
49460;SDS011;35355;49.198;-0.368;2023-04-15T05:15:35;7.60;;;0.90;;
49460;SDS011;35355;49.198;-0.368;2023-04-15T05:18:01;7.78;;;1.63;;
49460;SDS011;35355;49.198;-0.368;2023-04-15T05:20:26;6.82;;;1.02;;
49460;SDS011;35355;49.198;-0.368;2023-04-15T05:22:52;5.65;;;1.20;;
49460;SDS011;35355;49.198;-0.368;2023-04-15T05:25:17;6.95;;;1.23;;
49460;SDS011;35355;49.198;-0.368;2023-04-15T05:27:42;3.60;;;0.68;;
49460;SDS011;35355;49.198;-0.368;2023-04-15T05:30:08;5.22;;;0.90;;
49460;SDS011;35355;49.198;-0.368;2023-04-15T05:32:33;5.50;;;1.17;;
49460;SDS011;35355;49.198;-0.368;2023-04-15T05:34:59;7.78;;;0.90;;
49460;SDS011;35355;49.198;-0.368;2023-04-15T05:37:24;5.25;;;0.93;;
49460;SDS011;35355;49.198;-0.368;2023-04-15T05:39:50;5.30;;;0.93;;
49460;SDS011;35355;49.198;-0.368;2023-04-15T05:42:16;6.47;;;0.73;;
49460;SDS011;35355;49.198;-0.368;2023-04-15T05:44:41;5.28;;;0.90;;
49460;SDS011;35355;49.198;-0.368;2023-04-15T05:47:06;5.05;;;0.93;;
49460;SDS011;35355;49.198;-0.368;2023-04-15T05:49:32;8.95;;;1.38;;
49460;SDS011;35355;49.198;-0.368;2023-04-15T05:51:58;4.38;;;0.77;;
49460;SDS011;35355;49.198;-0.368;2023-04-15T05:54:23;6.57;;;0.93;;
49460;SDS011;35355;49.198;-0.368;2023-04-15T05:56:50;6.80;;;1.75;;
49460;SDS011;35355;49.198;-0.368;2023-04-15T05:59:15;4.50;;;1.13;;
49460;SDS011;35355;49.198;-0.368;2023-04-15T06:01:41;6.60;;;2.05;;
49460;SDS011;35355;49.198;-0.368;2023-04-15T06:04:06;3.58;;;1.00;;
49460;SDS011;35355;49.198;-0.368;2023-04-15T06:06:32;5.47;;;1.25;;
49460;SDS011;35355;49.198;-0.368;2023-04-15T06:08:57;2.92;;;1.08;;
49460;SDS011;35355;49.198;-0.368;2023-04-15T06:11:23;7.75;;;1.10;;
49460;SDS011;35355;49.198;-0.368;2023-04-15T06:13:48;6.32;;;1.60;;
49460;SDS011;35355;49.198;-0.368;2023-04-15T06:16:14;3.55;;;0.90;;
49460;SDS011;35355;49.198;-0.368;2023-04-15T06:18:39;4.40;;;0.70;;
49460;SDS011;35355;49.198;-0.368;2023-04-15T06:21:05;6.93;;;1.15;;
49460;SDS011;35355;49.198;-0.368;2023-04-15T06:23:30;5.30;;;0.90;;
49460;SDS011;35355;49.198;-0.368;2023-04-15T06:25:59;7.07;;;1.02;;
49460;SDS011;35355;49.198;-0.368;2023-04-15T06:28:24;5.95;;;1.20;;
49460;SDS011;35355;49.198;-0.368;2023-04-15T06:30:49;3.85;;;0.90;;
49460;SDS011;35355;49.198;-0.368;2023-04-15T06:33:15;8.20;;;1.33;;
49460;SDS011;35355;49.198;-0.368;2023-04-15T06:35:40;4.93;;;1.42;;
49460;SDS011;35355;49.198;-0.368;2023-04-15T06:38:05;6.03;;;0.93;;
49460;SDS011;35355;49.198;-0.368;2023-04-15T06:40:31;2.35;;;1.10;;
49460;SDS011;35355;49.198;-0.368;2023-04-15T06:42:56;5.20;;;1.08;;
49460;SDS011;35355;49.198;-0.368;2023-04-15T06:45:21;5.75;;;1.02;;
49460;SDS011;35355;49.198;-0.368;2023-04-15T06:47:47;3.00;;;1.17;;
49460;SDS011;35355;49.198;-0.368;2023-04-15T06:50:12;4.47;;;1.05;;
49460;SDS011;35355;49.198;-0.368;2023-04-15T06:52:38;3.53;;;1.10;;
49460;SDS011;35355;49.198;-0.368;2023-04-15T06:55:04;8.65;;;1.38;;
49460;SDS011;35355;49.198;-0.368;2023-04-15T06:57:30;3.20;;;0.80;;
49460;SDS011;35355;49.198;-0.368;2023-04-15T06:59:56;5.53;;;1.10;;
49460;SDS011;35355;49.198;-0.368;2023-04-15T07:02:21;4.78;;;1.35;;
49460;SDS011;35355;49.198;-0.368;2023-04-15T07:04:47;13.25;;;1.40;;
49460;SDS011;35355;49.198;-0.368;2023-04-15T07:07:12;7.50;;;1.20;;
49460;SDS011;35355;49.198;-0.368;2023-04-15T07:09:39;6.07;;;1.17;;
49460;SDS011;35355;49.198;-0.368;2023-04-15T07:12:04;5.95;;;1.38;;
49460;SDS011;35355;49.198;-0.368;2023-04-15T07:14:30;6.00;;;0.95;;
49460;SDS011;35355;49.198;-0.368;2023-04-15T07:16:55;5.57;;;1.30;;
49460;SDS011;35355;49.198;-0.368;2023-04-15T07:19:21;4.95;;;1.20;;
49460;SDS011;35355;49.198;-0.368;2023-04-15T07:21:47;2.38;;;1.27;;
49460;SDS011;35355;49.198;-0.368;2023-04-15T07:24:13;7.82;;;1.52;;
49460;SDS011;35355;49.198;-0.368;2023-04-15T07:26:42;6.38;;;1.00;;
49460;SDS011;35355;49.198;-0.368;2023-04-15T07:29:08;2.92;;;0.95;;
49460;SDS011;35355;49.198;-0.368;2023-04-15T07:31:34;4.85;;;1.42;;
49460;SDS011;35355;49.198;-0.368;2023-04-15T07:34:00;6.28;;;1.00;;
49460;SDS011;35355;49.198;-0.368;2023-04-15T07:36:26;2.97;;;1.08;;
49460;SDS011;35355;49.198;-0.368;2023-04-15T07:38:53;1.80;;;1.02;;
49460;SDS011;35355;49.198;-0.368;2023-04-15T07:41:19;3.90;;;1.40;;
49460;SDS011;35355;49.198;-0.368;2023-04-15T07:43:45;6.10;;;0.95;;
49460;SDS011;35355;49.198;-0.368;2023-04-15T07:46:10;9.55;;;1.00;;
49460;SDS011;35355;49.198;-0.368;2023-04-15T07:48:36;5.78;;;1.33;;
49460;SDS011;35355;49.198;-0.368;2023-04-15T07:51:01;4.30;;;1.65;;
49460;SDS011;35355;49.198;-0.368;2023-04-15T07:53:27;6.28;;;1.05;;
49460;SDS011;35355;49.198;-0.368;2023-04-15T07:55:52;3.40;;;0.98;;
49460;SDS011;35355;49.198;-0.368;2023-04-15T07:58:18;6.45;;;0.73;;
49460;SDS011;35355;49.198;-0.368;2023-04-15T08:00:43;5.32;;;0.80;;
49460;SDS011;35355;49.198;-0.368;2023-04-15T08:03:09;3.67;;;0.98;;
49460;SDS011;35355;49.198;-0.368;2023-04-15T08:05:34;6.70;;;1.20;;
49460;SDS011;35355;49.198;-0.368;2023-04-15T08:07:59;3.58;;;0.70;;
49460;SDS011;35355;49.198;-0.368;2023-04-15T08:10:25;6.25;;;0.90;;
49460;SDS011;35355;49.198;-0.368;2023-04-15T08:12:51;4.55;;;0.95;;
49460;SDS011;35355;49.198;-0.368;2023-04-15T08:15:18;3.42;;;1.17;;
49460;SDS011;35355;49.198;-0.368;2023-04-15T08:17:44;4.05;;;1.02;;
49460;SDS011;35355;49.198;-0.368;2023-04-15T08:20:10;3.17;;;0.73;;
49460;SDS011;35355;49.198;-0.368;2023-04-15T08:22:37;8.65;;;1.23;;
49460;SDS011;35355;49.198;-0.368;2023-04-15T08:25:02;3.85;;;1.20;;
49460;SDS011;35355;49.198;-0.368;2023-04-15T08:27:28;4.30;;;1.50;;
49460;SDS011;35355;49.198;-0.368;2023-04-15T08:29:53;5.13;;;1.15;;
49460;SDS011;35355;49.198;-0.368;2023-04-15T08:32:18;3.60;;;0.50;;
49460;SDS011;35355;49.198;-0.368;2023-04-15T08:34:44;3.22;;;0.63;;
49460;SDS011;35355;49.198;-0.368;2023-04-15T08:37:09;6.28;;;0.80;;
49460;SDS011;35355;49.198;-0.368;2023-04-15T08:39:35;1.85;;;0.40;;
49460;SDS011;35355;49.198;-0.368;2023-04-15T08:42:01;7.05;;;0.90;;
49460;SDS011;35355;49.198;-0.368;2023-04-15T08:44:32;1.58;;;0.52;;
49460;SDS011;35355;49.198;-0.368;2023-04-15T08:47:02;4.28;;;0.65;;
49460;SDS011;35355;49.198;-0.368;2023-04-15T08:49:31;6.72;;;0.90;;
49460;SDS011;35355;49.198;-0.368;2023-04-15T08:51:57;3.85;;;0.60;;
49460;SDS011;35355;49.198;-0.368;2023-04-15T08:54:24;7.53;;;0.88;;
49460;SDS011;35355;49.198;-0.368;2023-04-15T08:56:51;3.30;;;0.50;;
49460;SDS011;35355;49.198;-0.368;2023-04-15T08:59:16;2.90;;;0.43;;
49460;SDS011;35355;49.198;-0.368;2023-04-15T09:01:42;2.85;;;0.43;;
49460;SDS011;35355;49.198;-0.368;2023-04-15T09:04:08;2.05;;;0.98;;
49460;SDS011;35355;49.198;-0.368;2023-04-15T09:06:36;4.28;;;0.80;;
49460;SDS011;35355;49.198;-0.368;2023-04-15T09:09:04;1.90;;;0.63;;
49460;SDS011;35355;49.198;-0.368;2023-04-15T09:11:29;1.95;;;0.60;;
49460;SDS011;35355;49.198;-0.368;2023-04-15T09:13:55;2.70;;;0.63;;
49460;SDS011;35355;49.198;-0.368;2023-04-15T09:16:20;3.83;;;1.05;;
49460;SDS011;35355;49.198;-0.368;2023-04-15T09:18:46;4.47;;;1.38;;
49460;SDS011;35355;49.198;-0.368;2023-04-15T09:21:12;7.47;;;1.10;;
49460;SDS011;35355;49.198;-0.368;2023-04-15T09:23:40;7.63;;;1.45;;
49460;SDS011;35355;49.198;-0.368;2023-04-15T09:26:17;6.80;;;1.73;;
49460;SDS011;35355;49.198;-0.368;2023-04-15T09:28:43;4.32;;;1.08;;
49460;SDS011;35355;49.198;-0.368;2023-04-15T09:31:08;5.57;;;1.13;;
49460;SDS011;35355;49.198;-0.368;2023-04-15T09:33:34;8.43;;;1.90;;
49460;SDS011;35355;49.198;-0.368;2023-04-15T09:36:03;5.88;;;2.00;;
49460;SDS011;35355;49.198;-0.368;2023-04-15T09:38:30;4.72;;;1.48;;
49460;SDS011;35355;49.198;-0.368;2023-04-15T09:40:56;4.65;;;1.85;;
49460;SDS011;35355;49.198;-0.368;2023-04-15T09:43:22;4.82;;;1.50;;
49460;SDS011;35355;49.198;-0.368;2023-04-15T09:46:02;4.00;;;0.90;;
49460;SDS011;35355;49.198;-0.368;2023-04-15T09:48:27;3.80;;;1.35;;
49460;SDS011;35355;49.198;-0.368;2023-04-15T09:50:58;5.13;;;1.52;;
49460;SDS011;35355;49.198;-0.368;2023-04-15T09:53:24;4.50;;;0.90;;
49460;SDS011;35355;49.198;-0.368;2023-04-15T09:55:51;1.65;;;0.73;;
49460;SDS011;35355;49.198;-0.368;2023-04-15T09:58:23;4.75;;;0.85;;
49460;SDS011;35355;49.198;-0.368;2023-04-15T10:00:50;5.95;;;1.33;;
49460;SDS011;35355;49.198;-0.368;2023-04-15T10:03:21;6.10;;;1.27;;
49460;SDS011;35355;49.198;-0.368;2023-04-15T10:05:48;2.83;;;1.30;;
49460;SDS011;35355;49.198;-0.368;2023-04-15T10:08:19;3.53;;;0.82;;
49460;SDS011;35355;49.198;-0.368;2023-04-15T10:10:47;6.10;;;1.45;;
49460;SDS011;35355;49.198;-0.368;2023-04-15T10:13:16;4.43;;;1.27;;
49460;SDS011;35355;49.198;-0.368;2023-04-15T10:15:43;2.60;;;1.10;;
49460;SDS011;35355;49.198;-0.368;2023-04-15T10:18:14;6.97;;;1.40;;
49460;SDS011;35355;49.198;-0.368;2023-04-15T10:20:45;5.18;;;1.35;;
49460;SDS011;35355;49.198;-0.368;2023-04-15T10:23:11;5.18;;;1.67;;
49460;SDS011;35355;49.198;-0.368;2023-04-15T10:25:37;5.97;;;1.30;;
49460;SDS011;35355;49.198;-0.368;2023-04-15T10:28:03;10.95;;;1.65;;
49460;SDS011;35355;49.198;-0.368;2023-04-15T10:30:31;2.88;;;1.27;;
49460;SDS011;35355;49.198;-0.368;2023-04-15T10:32:58;6.97;;;1.55;;
49460;SDS011;35355;49.198;-0.368;2023-04-15T10:35:25;5.85;;;1.20;;
49460;SDS011;35355;49.198;-0.368;2023-04-15T10:37:52;7.15;;;1.70;;
49460;SDS011;35355;49.198;-0.368;2023-04-15T10:42:55;7.68;;;1.77;;
49460;SDS011;35355;49.198;-0.368;2023-04-15T10:45:21;9.73;;;2.15;;
49460;SDS011;35355;49.198;-0.368;2023-04-15T10:47:53;4.82;;;1.45;;
49460;SDS011;35355;49.198;-0.368;2023-04-15T10:50:19;5.85;;;1.63;;
49460;SDS011;35355;49.198;-0.368;2023-04-15T10:52:45;5.13;;;1.55;;
49460;SDS011;35355;49.198;-0.368;2023-04-15T10:55:15;4.40;;;1.42;;
49460;SDS011;35355;49.198;-0.368;2023-04-15T10:57:44;12.73;;;1.90;;
49460;SDS011;35355;49.198;-0.368;2023-04-15T11:08:06;7.60;;;2.85;;
49460;SDS011;35355;49.198;-0.368;2023-04-15T11:17:55;7.05;;;2.30;;
49460;SDS011;35355;49.198;-0.368;2023-04-15T11:20:21;10.48;;;3.20;;
49460;SDS011;35355;49.198;-0.368;2023-04-15T11:22:47;6.43;;;2.65;;
49460;SDS011;35355;49.198;-0.368;2023-04-15T11:25:24;6.35;;;2.60;;
49460;SDS011;35355;49.198;-0.368;2023-04-15T11:27:51;3.78;;;2.60;;
49460;SDS011;35355;49.198;-0.368;2023-04-15T11:30:18;10.02;;;2.72;;
49460;SDS011;35355;49.198;-0.368;2023-04-15T11:32:46;7.85;;;2.58;;
49460;SDS011;35355;49.198;-0.368;2023-04-15T11:35:13;10.68;;;3.38;;
49460;SDS011;35355;49.198;-0.368;2023-04-15T11:37:38;6.93;;;2.40;;
49460;SDS011;35355;49.198;-0.368;2023-04-15T11:40:04;4.55;;;2.42;;
49460;SDS011;35355;49.198;-0.368;2023-04-15T11:42:30;9.23;;;2.50;;
49460;SDS011;35355;49.198;-0.368;2023-04-15T11:45:14;5.97;;;2.65;;
49460;SDS011;35355;49.198;-0.368;2023-04-15T11:47:40;7.25;;;2.65;;
49460;SDS011;35355;49.198;-0.368;2023-04-15T11:50:40;20.70;;;3.17;;
49460;SDS011;35355;49.198;-0.368;2023-04-15T11:53:02;8.25;;;3.20;;
49460;SDS011;35355;49.198;-0.368;2023-04-15T11:55:29;13.50;;;3.53;;
49460;SDS011;35355;49.198;-0.368;2023-04-15T11:58:11;6.45;;;2.78;;
49460;SDS011;35355;49.198;-0.368;2023-04-15T12:00:45;6.07;;;2.60;;
49460;SDS011;35355;49.198;-0.368;2023-04-15T12:11:47;7.05;;;2.70;;
49460;SDS011;35355;49.198;-0.368;2023-04-15T12:16:57;7.15;;;2.55;;
49460;SDS011;35355;49.198;-0.368;2023-04-15T12:19:28;7.28;;;2.92;;
49460;SDS011;35355;49.198;-0.368;2023-04-15T12:22:14;6.72;;;2.63;;
49460;SDS011;35355;49.198;-0.368;2023-04-15T12:24:41;7.93;;;2.75;;
49460;SDS011;35355;49.198;-0.368;2023-04-15T12:27:12;7.10;;;2.50;;
49460;SDS011;35355;49.198;-0.368;2023-04-15T12:29:40;4.28;;;2.20;;
49460;SDS011;35355;49.198;-0.368;2023-04-15T12:34:34;10.43;;;2.47;;
49460;SDS011;35355;49.198;-0.368;2023-04-15T12:37:02;7.88;;;2.35;;
49460;SDS011;35355;49.198;-0.368;2023-04-15T12:39:39;7.47;;;2.88;;
49460;SDS011;35355;49.198;-0.368;2023-04-15T12:42:06;6.68;;;2.53;;
49460;SDS011;35355;49.198;-0.368;2023-04-15T12:44:32;12.68;;;3.22;;
49460;SDS011;35355;49.198;-0.368;2023-04-15T12:46:57;4.00;;;2.45;;
49460;SDS011;35355;49.198;-0.368;2023-04-15T12:49:24;8.27;;;4.00;;
49460;SDS011;35355;49.198;-0.368;2023-04-15T12:51:51;8.55;;;2.83;;
49460;SDS011;35355;49.198;-0.368;2023-04-15T12:54:18;10.57;;;3.92;;
49460;SDS011;35355;49.198;-0.368;2023-04-15T12:56:45;6.30;;;2.60;;
49460;SDS011;35355;49.198;-0.368;2023-04-15T12:59:12;10.20;;;2.20;;
49460;SDS011;35355;49.198;-0.368;2023-04-15T13:01:39;4.88;;;2.20;;
49460;SDS011;35355;49.198;-0.368;2023-04-15T13:04:05;5.72;;;2.40;;
49460;SDS011;35355;49.198;-0.368;2023-04-15T13:06:31;6.20;;;2.92;;
49460;SDS011;35355;49.198;-0.368;2023-04-15T13:09:00;8.02;;;2.90;;
49460;SDS011;35355;49.198;-0.368;2023-04-15T13:11:26;4.65;;;2.13;;
49460;SDS011;35355;49.198;-0.368;2023-04-15T13:13:54;8.70;;;2.95;;
49460;SDS011;35355;49.198;-0.368;2023-04-15T13:16:20;6.32;;;2.55;;
49460;SDS011;35355;49.198;-0.368;2023-04-15T13:18:47;3.97;;;2.20;;
49460;SDS011;35355;49.198;-0.368;2023-04-15T13:21:12;5.72;;;1.98;;
49460;SDS011;35355;49.198;-0.368;2023-04-15T13:23:39;5.53;;;2.20;;
49460;SDS011;35355;49.198;-0.368;2023-04-15T13:26:05;6.55;;;2.85;;
49460;SDS011;35355;49.198;-0.368;2023-04-15T13:28:31;5.43;;;2.65;;
49460;SDS011;35355;49.198;-0.368;2023-04-15T13:30:56;6.85;;;1.80;;
49460;SDS011;35355;49.198;-0.368;2023-04-15T13:33:21;9.35;;;2.53;;
49460;SDS011;35355;49.198;-0.368;2023-04-15T13:35:47;9.73;;;2.65;;
49460;SDS011;35355;49.198;-0.368;2023-04-15T13:38:12;6.85;;;2.60;;
49460;SDS011;35355;49.198;-0.368;2023-04-15T13:40:37;5.63;;;2.45;;
49460;SDS011;35355;49.198;-0.368;2023-04-15T13:43:03;7.97;;;2.40;;
49460;SDS011;35355;49.198;-0.368;2023-04-15T13:45:28;6.32;;;2.70;;
49460;SDS011;35355;49.198;-0.368;2023-04-15T13:47:54;7.05;;;3.95;;
49460;SDS011;35355;49.198;-0.368;2023-04-15T13:50:20;5.78;;;2.75;;
49460;SDS011;35355;49.198;-0.368;2023-04-15T13:52:45;10.60;;;3.03;;
49460;SDS011;35355;49.198;-0.368;2023-04-15T13:55:11;6.05;;;2.90;;
49460;SDS011;35355;49.198;-0.368;2023-04-15T13:57:36;5.32;;;2.05;;
49460;SDS011;35355;49.198;-0.368;2023-04-15T14:00:02;3.80;;;1.85;;
49460;SDS011;35355;49.198;-0.368;2023-04-15T14:02:28;8.90;;;3.20;;
49460;SDS011;35355;49.198;-0.368;2023-04-15T14:04:54;4.53;;;2.10;;
49460;SDS011;35355;49.198;-0.368;2023-04-15T14:07:20;3.28;;;1.92;;
49460;SDS011;35355;49.198;-0.368;2023-04-15T14:09:45;9.40;;;3.22;;
49460;SDS011;35355;49.198;-0.368;2023-04-15T14:12:12;4.38;;;2.42;;
49460;SDS011;35355;49.198;-0.368;2023-04-15T14:14:38;4.13;;;2.20;;
49460;SDS011;35355;49.198;-0.368;2023-04-15T14:17:03;3.92;;;2.15;;
49460;SDS011;35355;49.198;-0.368;2023-04-15T14:19:29;5.78;;;2.25;;
49460;SDS011;35355;49.198;-0.368;2023-04-15T14:21:55;8.63;;;2.53;;
49460;SDS011;35355;49.198;-0.368;2023-04-15T14:24:21;6.88;;;2.03;;
49460;SDS011;35355;49.198;-0.368;2023-04-15T14:26:46;9.70;;;3.00;;
49460;SDS011;35355;49.198;-0.368;2023-04-15T14:29:12;5.57;;;3.47;;
49460;SDS011;35355;49.198;-0.368;2023-04-15T14:31:37;6.47;;;2.10;;
49460;SDS011;35355;49.198;-0.368;2023-04-15T14:34:03;11.43;;;2.97;;
49460;SDS011;35355;49.198;-0.368;2023-04-15T14:36:28;6.50;;;2.88;;
49460;SDS011;35355;49.198;-0.368;2023-04-15T14:38:54;7.65;;;3.40;;
49460;SDS011;35355;49.198;-0.368;2023-04-15T14:41:19;8.38;;;2.72;;
49460;SDS011;35355;49.198;-0.368;2023-04-15T14:43:46;5.03;;;2.63;;
49460;SDS011;35355;49.198;-0.368;2023-04-15T14:46:11;5.07;;;2.35;;
49460;SDS011;35355;49.198;-0.368;2023-04-15T14:48:38;6.18;;;2.92;;
49460;SDS011;35355;49.198;-0.368;2023-04-15T14:51:03;6.13;;;2.58;;
49460;SDS011;35355;49.198;-0.368;2023-04-15T14:53:29;6.28;;;2.10;;
49460;SDS011;35355;49.198;-0.368;2023-04-15T14:55:55;6.72;;;2.30;;
49460;SDS011;35355;49.198;-0.368;2023-04-15T14:58:20;7.78;;;2.70;;
49460;SDS011;35355;49.198;-0.368;2023-04-15T15:00:46;5.18;;;2.60;;